KANE

Anoka County-Blaine (Janes Field) Airport

Minneapolis, Minnesota, USA
METAR KANE 190555Z AUTO 01008KT 10SM SCT070 OVC100 M14/M19 A3038 RMK AO2
Observed Flight Rules
Jan-19 @ 05:55 UTC (25 minutes ago) Visual Flight Rules
Wind Visibility Clouds
10° at 8 knots 10 miles
  • Scattered at 7,000' AGL
  • Overcast at 10,000' AGL
Temperatures Readings
Current -14°C / 7°F
Dewpoint -19°C / -2°F
Humidity 66%
Altimeter 30.38" Hg
Pressure 1028.81 hPa
Elevation 278
METAR KANE 190555Z AUTO 01008KT 10SM SCT070 OVC100 M14/M19 A3038 RMK AO2
Observed Flight Rules
Jan-19 @ 05:55 UTC
(25 minutes ago)
VFR
Wind Visibility
10° at 8 knots 10 miles
Clouds
  • Scattered at 7,000' AGL
  • Overcast at 10,000' AGL
Temperature Dewpoint
-14°C / 7°F -19°C / -2°F
Humidity Altimeter Pressure
66% 30.38" Hg 1028.81 hPa